Terminal Aerodrome Forecast
Issued by NWS Quad Cities IA IL

Home | Current Version | Previous Version | Text Only | Print | Product List | Glossary On
Versions: 1 2 3 4 5 6 7 8 9 10 11 12 13 14 15 16 17 18 19 20 21 22 23 24 25 26 27 28
619
FTUS43 KDVN 231455 AAA
TAFDBQ
TAF AMD
KDBQ 231455Z 2315/2412 36014KT P6SM SCT200
     FM231600 04012KT P6SM SCT012 BKN025
     FM232100 06012G20KT P6SM VCSH BKN025 OVC080
     FM240200 07016G20KT 3SM -RA BR OVC012
     FM240600 08018G26KT 2SM -RA BR OVC005=

USA.gov is the U.S. government's official web portal to all federal, state and local government web resources and services.